Time;durP1;ratioP1;P1;durP2;ratioP2;P2;SDS_P1;SDS_P2;PMS_P1;PMS_P2;Temp;Humidity;BMP_temperature;BMP_pressure;BME280_temperature;BME280_humidity;BME280_pressure;Samples;Min_cycle;Max_cycle;Signal;HPM_P1;HPM_P2
2023/08/05 00:00:39;;;;;;;0.87;0.80;;;15.80;99.90;;;;;;5081584;28;20494;-79
2023/08/05 00:03:06;;;;;;;1.07;0.80;;;15.80;99.90;;;;;;5083793;28;20459;-81
2023/08/05 00:05:33;;;;;;;1.00;0.90;;;15.70;99.90;;;;;;5088503;28;20537;-82
2023/08/05 00:08:00;;;;;;;0.80;0.63;;;15.90;99.90;;;;;;5099202;28;20514;-81
2023/08/05 00:10:27;;;;;;;2.03;0.77;;;15.80;99.90;;;;;;5098290;28;20467;-79
2023/08/05 00:12:56;;;;;;;1.70;0.83;;;15.90;99.90;;;;;;5092702;28;20459;-81
2023/08/05 00:15:23;;;;;;;0.73;0.60;;;15.90;99.90;;;;;;5086898;28;20473;-79
2023/08/05 00:17:50;;;;;;;0.70;0.67;;;15.90;99.90;;;;;;5083393;28;20555;-79
2023/08/05 00:20:17;;;;;;;4.00;0.80;;;15.90;99.90;;;;;;5085059;28;20482;-81
2023/08/05 00:22:44;;;;;;;1.23;1.13;;;15.90;99.90;;;;;;5084090;28;20450;-82
2023/08/05 00:25:12;;;;;;;1.57;0.83;;;15.80;99.90;;;;;;5080411;28;20522;-80
2023/08/05 00:27:39;;;;;;;0.70;0.70;;;15.80;99.90;;;;;;5079902;28;20459;-80
2023/08/05 00:30:09;;;;;;;0.60;0.50;;;15.90;99.90;;;;;;5081089;28;20466;-80
2023/08/05 00:32:36;;;;;;;0.70;0.70;;;15.80;99.90;;;;;;5079202;28;20534;-80
2023/08/05 00:35:04;;;;;;;0.60;0.60;;;15.90;99.90;;;;;;5083614;28;20577;-79
2023/08/05 00:37:31;;;;;;;1.73;0.70;;;15.90;99.90;;;;;;5078923;28;20547;-81
2023/08/05 00:39:58;;;;;;;1.77;1.30;;;15.80;99.90;;;;;;5081045;28;20487;-79
2023/08/05 00:42:27;;;;;;;1.43;0.80;;;15.80;99.90;;;;;;5080451;28;20512;-79
2023/08/05 00:44:54;;;;;;;1.50;0.80;;;15.80;99.90;;;;;;5080220;28;21047;-80
2023/08/05 00:47:22;;;;;;;1.83;0.80;;;15.80;99.90;;;;;;5080555;28;20467;-80
2023/08/05 00:49:52;;;;;;;0.80;0.70;;;15.80;99.90;;;;;;5082973;28;20466;-79
2023/08/05 00:52:21;;;;;;;0.60;0.60;;;15.90;99.90;;;;;;5085362;28;20495;-79
2023/08/05 00:54:49;;;;;;;2.20;0.80;;;15.80;99.90;;;;;;5082744;28;20508;-79
2023/08/05 00:57:18;;;;;;;0.90;0.67;;;15.70;99.90;;;;;;5079589;28;20531;-80
2023/08/05 00:59:45;;;;;;;3.13;0.67;;;15.70;99.90;;;;;;5083050;28;20543;-79
2023/08/05 01:02:12;;;;;;;1.60;1.50;;;15.80;99.90;;;;;;5081571;28;21052;-80
2023/08/05 01:04:41;;;;;;;0.67;0.60;;;15.80;99.90;;;;;;5081990;28;20461;-79
2023/08/05 01:07:09;;;;;;;0.80;0.70;;;15.90;99.90;;;;;;5078483;28;20488;-79
2023/08/05 01:09:36;;;;;;;3.03;1.00;;;15.80;99.90;;;;;;5078567;28;20734;-79
2023/08/05 01:12:03;;;;;;;0.80;0.80;;;15.80;99.90;;;;;;5080575;28;20537;-81
2023/08/05 01:14:31;;;;;;;1.30;1.00;;;15.90;99.90;;;;;;5084262;28;20469;-79
2023/08/05 01:16:58;;;;;;;1.47;1.37;;;15.90;99.90;;;;;;5081014;28;20455;-79
2023/08/05 01:19:27;;;;;;;2.43;1.47;;;15.90;99.90;;;;;;5078971;28;20483;-81
2023/08/05 01:22:07;;;;;;;3.03;1.30;;;15.80;99.90;;;;;;5083845;28;20543;-80
2023/08/05 01:24:42;;;;;;;1.27;1.17;;;15.70;99.90;;;;;;5088393;28;20439;-81
2023/08/05 01:27:10;;;;;;;1.53;0.93;;;15.80;99.90;;;;;;5089188;28;20468;-79
2023/08/05 01:29:38;;;;;;;1.83;1.37;;;15.80;99.90;;;;;;5089445;28;20476;-80
2023/08/05 01:32:07;;;;;;;1.67;1.57;;;15.70;99.90;;;;;;5096494;28;20485;-78
2023/08/05 01:34:34;;;;;;;1.13;0.90;;;15.70;99.90;;;;;;5103154;28;20434;-80
2023/08/05 01:37:01;;;;;;;3.77;1.20;;;15.60;99.90;;;;;;5097660;28;20509;-79
2023/08/05 01:39:28;;;;;;;6.50;1.23;;;15.70;99.90;;;;;;5093206;28;20536;-80
2023/08/05 01:41:55;;;;;;;1.80;1.43;;;15.60;99.90;;;;;;5080596;28;20495;-79
2023/08/05 01:44:24;;;;;;;1.40;1.00;;;15.70;99.90;;;;;;5088045;28;21038;-80
2023/08/05 01:46:51;;;;;;;1.53;1.43;;;15.70;99.90;;;;;;5085938;28;20798;-80
2023/08/05 01:49:17;;;;;;;1.70;1.60;;;15.80;99.90;;;;;;5081499;28;20501;-79
2023/08/05 01:51:44;;;;;;;1.30;1.20;;;15.80;99.90;;;;;;5087485;28;20466;-81
2023/08/05 01:54:11;;;;;;;1.47;1.20;;;15.80;99.90;;;;;;5082993;28;21145;-80
2023/08/05 01:56:38;;;;;;;1.03;0.93;;;15.80;99.90;;;;;;5083390;28;20524;-78
2023/08/05 01:59:05;;;;;;;1.07;0.93;;;15.80;99.90;;;;;;5086162;28;20507;-79
2023/08/05 02:01:44;;;;;;;2.70;1.10;;;15.80;99.90;;;;;;5088221;28;20496;-81
2023/08/05 02:04:11;;;;;;;1.20;1.10;;;15.70;99.90;;;;;;5086182;28;20523;-79
2023/08/05 02:06:38;;;;;;;1.20;1.10;;;15.90;99.90;;;;;;5082432;28;20478;-79
2023/08/05 02:09:05;;;;;;;1.47;1.20;;;15.80;99.90;;;;;;5087811;28;20499;-80
2023/08/05 02:11:32;;;;;;;1.93;1.83;;;15.80;99.90;;;;;;5081026;28;20454;-81
2023/08/05 02:13:59;;;;;;;1.40;1.30;;;15.70;99.90;;;;;;5084249;28;20458;-80
2023/08/05 02:16:26;;;;;;;1.53;1.20;;;15.70;99.90;;;;;;5077458;28;20460;-79
2023/08/05 02:18:55;;;;;;;1.40;1.30;;;15.70;99.90;;;;;;5087584;28;20450;-79
2023/08/05 02:21:22;;;;;;;1.50;1.40;;;15.60;99.90;;;;;;5086502;28;20525;-80
2023/08/05 02:23:49;;;;;;;2.03;1.93;;;15.60;99.90;;;;;;5085844;28;20494;-80
2023/08/05 02:26:16;;;;;;;2.23;2.13;;;15.70;99.90;;;;;;5082104;28;20468;-80
2023/08/05 02:28:43;;;;;;;1.73;1.30;;;15.70;99.90;;;;;;5087673;28;20454;-81
2023/08/05 02:31:10;;;;;;;1.67;1.57;;;15.70;99.90;;;;;;5086867;28;20512;-79
2023/08/05 02:33:37;;;;;;;1.47;1.37;;;15.80;99.90;;;;;;5085804;28;20439;-80
2023/08/05 02:36:06;;;;;;;1.93;1.50;;;15.90;99.90;;;;;;5087141;28;20455;-79
2023/08/05 02:38:33;;;;;;;11.23;2.80;;;15.80;99.90;;;;;;5085474;28;20435;-81
2023/08/05 02:41:00;;;;;;;1.70;1.30;;;15.70;99.90;;;;;;5086793;28;20494;-79
2023/08/05 02:43:27;;;;;;;2.07;1.87;;;15.70;99.90;;;;;;5084648;28;20487;-79
2023/08/05 02:45:55;;;;;;;2.37;1.40;;;15.70;99.90;;;;;;5085120;28;20533;-80
2023/08/05 02:48:22;;;;;;;2.73;1.60;;;15.70;99.90;;;;;;5083675;28;20526;-80
2023/08/05 02:50:49;;;;;;;1.83;1.53;;;15.70;99.90;;;;;;5082659;28;20453;-79
2023/08/05 02:53:18;;;;;;;2.33;1.73;;;15.60;99.90;;;;;;5084652;28;20527;-80
2023/08/05 02:55:45;;;;;;;1.57;1.20;;;15.60;99.90;;;;;;5086936;28;20986;-79
2023/08/05 02:58:12;;;;;;;1.93;1.73;;;15.60;99.90;;;;;;5086695;28;20524;-80
2023/08/05 03:00:39;;;;;;;2.83;2.33;;;15.70;99.90;;;;;;5098659;28;21098;-80
2023/08/05 03:03:09;;;;;;;5.93;3.03;;;15.70;99.90;;;;;;5096695;28;20480;-80
2023/08/05 03:05:36;;;;;;;3.50;2.40;;;15.70;99.90;;;;;;5091961;28;20490;-81
2023/08/05 03:08:04;;;;;;;2.93;2.10;;;15.70;99.90;;;;;;5081932;28;20458;-80
2023/08/05 03:10:32;;;;;;;2.80;2.40;;;15.60;99.90;;;;;;5087520;28;20451;-81
2023/08/05 03:12:59;;;;;;;3.60;2.50;;;15.50;99.90;;;;;;5084424;28;20461;-79
2023/08/05 03:15:28;;;;;;;3.27;2.90;;;15.60;99.90;;;;;;5086135;28;20449;-80
2023/08/05 03:17:55;;;;;;;1.70;1.60;;;15.60;99.90;;;;;;5083846;28;20534;-81
2023/08/05 03:20:27;;;;;;;2.20;1.90;;;15.60;99.90;;;;;;5080730;28;20518;-79
2023/08/05 03:22:54;;;;;;;2.30;2.10;;;15.60;99.90;;;;;;5085888;28;20950;-80
2023/08/05 03:25:21;;;;;;;1.53;1.43;;;15.60;99.90;;;;;;5085008;28;20958;-79
2023/08/05 03:27:50;;;;;;;2.57;2.37;;;15.70;99.90;;;;;;5085604;28;20451;-80
2023/08/05 03:30:18;;;;;;;1.33;1.23;;;15.70;99.90;;;;;;5081119;28;20452;-79
2023/08/05 03:32:47;;;;;;;1.97;1.47;;;15.80;99.90;;;;;;5086523;28;20445;-78
2023/08/05 03:35:14;;;;;;;2.43;2.23;;;15.80;99.90;;;;;;5084209;28;21674;-78
2023/08/05 03:37:41;;;;;;;3.60;2.20;;;15.80;99.90;;;;;;5085788;28;20446;-80
2023/08/05 03:40:09;;;;;;;2.00;1.87;;;15.80;99.90;;;;;;5085560;28;20475;-79
2023/08/05 03:42:36;;;;;;;2.00;1.90;;;15.70;99.90;;;;;;5085406;28;20496;-81
2023/08/05 03:45:06;;;;;;;2.83;2.63;;;15.80;99.90;;;;;;5086449;28;21033;-78
2023/08/05 03:47:33;;;;;;;9.53;3.17;;;15.80;99.90;;;;;;5079991;28;20852;-79
2023/08/05 03:50:01;;;;;;;2.90;2.70;;;15.90;99.90;;;;;;5081470;28;20439;-79
2023/08/05 03:52:29;;;;;;;4.37;2.70;;;15.90;99.90;;;;;;5082699;28;21013;-78
2023/08/05 03:54:56;;;;;;;2.17;2.07;;;15.90;99.90;;;;;;5086447;28;20535;-79
2023/08/05 03:57:23;;;;;;;3.60;3.30;;;15.80;99.90;;;;;;5086082;28;20451;-77
2023/08/05 03:59:50;;;;;;;2.33;2.13;;;15.90;99.90;;;;;;5081003;28;20547;-77
2023/08/05 04:02:18;;;;;;;2.33;2.13;;;15.90;99.90;;;;;;5081284;28;20520;-77
2023/08/05 04:04:45;;;;;;;1.73;1.63;;;15.80;99.90;;;;;;5077236;28;20473;-78
2023/08/05 04:07:13;;;;;;;2.30;1.60;;;15.90;99.90;;;;;;5073529;28;20536;-78
2023/08/05 04:09:41;;;;;;;1.47;1.37;;;15.80;99.90;;;;;;5081471;28;20830;-78
2023/08/05 04:12:09;;;;;;;1.90;1.33;;;15.80;99.90;;;;;;5079680;28;20459;-77
2023/08/05 04:14:37;;;;;;;2.50;1.23;;;15.90;99.90;;;;;;5074263;28;20490;-78
2023/08/05 04:17:05;;;;;;;1.30;1.10;;;15.90;99.90;;;;;;5081595;28;20463;-78
2023/08/05 04:19:33;;;;;;;0.90;0.80;;;15.80;99.90;;;;;;5077416;28;20448;-78
2023/08/05 04:22:01;;;;;;;0.80;0.80;;;15.80;99.90;;;;;;5079997;28;21570;-81
2023/08/05 04:24:29;;;;;;;1.20;1.10;;;15.80;99.90;;;;;;5077550;28;20969;-78
2023/08/05 04:26:57;;;;;;;1.20;1.10;;;15.70;99.90;;;;;;5078665;28;20543;-78
2023/08/05 04:29:24;;;;;;;1.77;1.30;;;15.80;99.90;;;;;;5081006;28;20555;-79
2023/08/05 04:31:51;;;;;;;1.27;1.00;;;15.70;99.90;;;;;;5082816;28;20469;-78
2023/08/05 04:34:18;;;;;;;1.60;1.50;;;15.70;99.90;;;;;;5077123;28;20816;-78
2023/08/05 04:36:48;;;;;;;1.10;1.00;;;15.70;99.90;;;;;;5076080;28;20509;-78
2023/08/05 04:39:17;;;;;;;0.90;0.90;;;15.60;99.90;;;;;;5084508;28;20546;-79
2023/08/05 04:41:44;;;;;;;1.10;1.00;;;15.60;99.90;;;;;;5083892;28;20494;-78
2023/08/05 04:44:11;;;;;;;1.13;1.13;;;15.50;99.90;;;;;;5081568;28;20470;-79
2023/08/05 04:46:38;;;;;;;1.43;1.33;;;15.40;99.90;;;;;;5080530;28;20460;-81
2023/08/05 04:49:08;;;;;;;1.63;1.00;;;15.40;99.90;;;;;;5080192;28;20460;-79
2023/08/05 04:51:35;;;;;;;1.27;1.00;;;15.40;99.90;;;;;;5086666;28;21046;-78
2023/08/05 04:54:04;;;;;;;1.33;1.20;;;15.40;99.90;;;;;;5087702;28;20447;-81
2023/08/05 04:56:31;;;;;;;1.50;1.40;;;15.40;99.90;;;;;;5082040;28;20511;-82
2023/08/05 04:58:57;;;;;;;1.00;1.00;;;15.40;99.90;;;;;;5086736;28;20511;-77
2023/08/05 05:01:24;;;;;;;1.07;1.07;;;15.40;99.90;;;;;;5082821;28;20496;-77
2023/08/05 05:03:52;;;;;;;1.47;1.37;;;15.40;99.90;;;;;;5081682;28;20546;-83
2023/08/05 05:06:19;;;;;;;1.23;0.97;;;15.30;99.90;;;;;;5074771;28;20475;-77
2023/08/05 05:08:46;;;;;;;1.47;0.80;;;15.30;99.90;;;;;;5082177;28;20447;-76
2023/08/05 05:11:14;;;;;;;0.87;0.80;;;15.30;99.90;;;;;;5083005;28;20443;-79
2023/08/05 05:13:43;;;;;;;0.90;0.90;;;15.30;99.90;;;;;;5081780;28;20459;-78
2023/08/05 05:16:11;;;;;;;2.10;0.90;;;15.20;99.90;;;;;;5082476;28;20464;-78
2023/08/05 05:18:38;;;;;;;0.80;0.70;;;15.10;99.90;;;;;;5081441;28;20461;-78
2023/08/05 05:21:05;;;;;;;0.87;0.87;;;15.20;99.90;;;;;;5084719;28;20484;-80
2023/08/05 05:23:31;;;;;;;0.70;0.70;;;15.20;99.90;;;;;;5083031;28;20961;-78
2023/08/05 05:25:58;;;;;;;1.40;1.30;;;15.20;99.90;;;;;;5080178;28;20440;-81
2023/08/05 05:28:27;;;;;;;1.00;1.00;;;15.20;99.90;;;;;;5085136;28;20435;-82
2023/08/05 05:30:54;;;;;;;0.93;0.93;;;15.20;99.90;;;;;;5078989;28;20474;-78
2023/08/05 05:33:21;;;;;;;2.47;0.97;;;15.20;99.90;;;;;;5085869;28;20503;-81
2023/08/05 05:35:50;;;;;;;0.80;0.80;;;15.20;99.90;;;;;;5082133;28;20440;-80
2023/08/05 05:38:17;;;;;;;1.30;1.00;;;15.20;99.90;;;;;;5081424;28;20545;-77
2023/08/05 05:40:44;;;;;;;0.80;0.80;;;15.30;99.90;;;;;;5081650;28;20480;-77
2023/08/05 05:43:11;;;;;;;0.80;0.80;;;15.30;99.90;;;;;;5084437;28;20933;-78
2023/08/05 05:45:41;;;;;;;0.90;0.90;;;15.30;99.90;;;;;;5077509;28;20935;-78
2023/08/05 05:48:08;;;;;;;1.40;1.30;;;15.30;99.90;;;;;;5083434;28;20461;-78
2023/08/05 05:50:39;;;;;;;1.17;1.00;;;15.40;99.90;;;;;;5083945;28;20439;-80
2023/08/05 05:53:06;;;;;;;1.40;1.13;;;15.40;99.90;;;;;;5087022;28;20461;-79
2023/08/05 05:55:33;;;;;;;3.70;1.50;;;15.50;99.90;;;;;;5088045;28;20535;-77
2023/08/05 05:58:00;;;;;;;2.37;2.03;;;15.50;99.90;;;;;;5085356;28;20534;-77
2023/08/05 06:00:27;;;;;;;3.23;2.27;;;15.60;99.90;;;;;;5087589;28;20532;-79
2023/08/05 06:02:55;;;;;;;2.77;2.57;;;15.60;99.90;;;;;;5088067;28;20474;-79
2023/08/05 06:05:22;;;;;;;3.27;3.00;;;15.60;99.90;;;;;;5086724;28;20444;-80
2023/08/05 06:07:49;;;;;;;2.93;2.77;;;15.70;99.90;;;;;;5080936;28;20466;-80
2023/08/05 06:10:16;;;;;;;3.23;3.03;;;15.70;99.90;;;;;;5084861;28;20485;-80
2023/08/05 06:12:43;;;;;;;2.20;2.00;;;15.70;99.90;;;;;;5082939;28;20523;-79
2023/08/05 06:15:11;;;;;;;5.17;3.13;;;15.70;99.90;;;;;;5078841;28;21213;-78
2023/08/05 06:17:39;;;;;;;4.17;3.80;;;15.70;99.90;;;;;;5083752;28;20520;-77
2023/08/05 06:20:09;;;;;;;7.70;5.50;;;15.70;99.90;;;;;;5080107;28;20455;-78
2023/08/05 06:22:35;;;;;;;1.77;1.67;;;15.70;99.90;;;;;;5084914;28;20567;-80
2023/08/05 06:25:03;;;;;;;1.77;1.67;;;15.70;99.90;;;;;;5074912;28;20579;-77
2023/08/05 06:27:30;;;;;;;2.50;1.23;;;15.70;99.90;;;;;;5083126;28;20804;-76
2023/08/05 06:29:57;;;;;;;2.00;1.87;;;15.60;99.90;;;;;;5084149;28;20486;-81
2023/08/05 06:32:24;;;;;;;4.27;1.93;;;15.70;99.90;;;;;;5082064;28;20498;-78
2023/08/05 06:34:50;;;;;;;2.90;2.23;;;15.70;99.90;;;;;;5084003;28;20856;-79
2023/08/05 06:37:19;;;;;;;2.50;2.30;;;15.70;99.90;;;;;;5080065;28;20492;-77
2023/08/05 06:39:46;;;;;;;2.20;2.00;;;15.70;99.90;;;;;;5094540;28;20472;-78
2023/08/05 06:42:13;;;;;;;1.90;1.73;;;15.70;99.90;;;;;;5082827;28;20543;-81
2023/08/05 06:44:43;;;;;;;1.50;1.40;;;15.60;99.90;;;;;;5084047;28;20474;-80
2023/08/05 06:47:10;;;;;;;2.13;1.97;;;15.70;99.90;;;;;;5081457;28;20464;-79
2023/08/05 06:49:37;;;;;;;1.67;1.57;;;15.70;99.90;;;;;;5076770;28;20544;-80
2023/08/05 06:52:06;;;;;;;1.67;1.37;;;15.70;99.90;;;;;;5084328;28;20527;-79
2023/08/05 06:54:34;;;;;;;1.80;1.53;;;15.70;99.90;;;;;;5081260;28;20446;-81
2023/08/05 06:57:01;;;;;;;1.90;1.80;;;15.70;99.90;;;;;;5086444;28;20436;-79
2023/08/05 06:59:28;;;;;;;1.90;1.43;;;15.70;99.90;;;;;;5086034;28;20536;-81
2023/08/05 07:01:55;;;;;;;2.30;2.13;;;15.70;99.90;;;;;;5081693;28;20521;-80
2023/08/05 07:04:22;;;;;;;1.83;1.73;;;15.70;99.90;;;;;;5082890;28;20523;-80
2023/08/05 07:06:49;;;;;;;2.57;1.60;;;15.60;99.90;;;;;;5081349;28;20441;-78
2023/08/05 07:09:16;;;;;;;1.00;1.00;;;15.60;99.90;;;;;;5078063;28;20986;-81
2023/08/05 07:11:45;;;;;;;1.97;1.30;;;15.50;99.90;;;;;;5080765;28;20520;-80
2023/08/05 07:14:12;;;;;;;1.73;1.40;;;15.50;99.90;;;;;;5081784;28;20447;-79
2023/08/05 07:16:39;;;;;;;1.00;1.00;;;15.60;99.90;;;;;;5078998;28;20511;-78
2023/08/05 07:19:06;;;;;;;1.67;1.40;;;15.60;99.90;;;;;;5081853;28;20956;-80
2023/08/05 07:21:33;;;;;;;1.47;1.37;;;15.60;99.90;;;;;;5084069;28;20507;-79
2023/08/05 07:23:59;;;;;;;1.53;1.43;;;15.60;99.90;;;;;;5080690;28;20477;-80
2023/08/05 07:26:26;;;;;;;1.50;1.17;;;15.50;99.90;;;;;;5084011;28;20471;-78
2023/08/05 07:28:55;;;;;;;1.77;1.67;;;15.60;99.90;;;;;;5084228;28;20439;-79
2023/08/05 07:31:22;;;;;;;1.37;1.27;;;15.60;99.90;;;;;;5082582;28;20440;-79
2023/08/05 07:33:51;;;;;;;1.30;1.20;;;15.70;99.90;;;;;;5081992;28;20446;-81
2023/08/05 07:36:22;;;;;;;1.97;1.00;;;15.60;99.90;;;;;;5080298;28;20444;-78
2023/08/05 07:38:51;;;;;;;2.10;1.60;;;15.70;99.90;;;;;;5077640;28;20441;-81
2023/08/05 07:41:20;;;;;;;2.23;2.03;;;15.70;99.90;;;;;;5083616;28;20527;-79
2023/08/05 07:43:47;;;;;;;1.47;1.37;;;15.70;99.90;;;;;;5083547;28;20439;-81
2023/08/05 07:46:16;;;;;;;3.70;1.83;;;15.70;99.90;;;;;;5079514;28;20456;-80
2023/08/05 07:48:46;;;;;;;1.77;1.20;;;15.70;99.90;;;;;;5080604;28;21479;-81
2023/08/05 07:51:13;;;;;;;1.27;1.17;;;15.70;99.90;;;;;;5081068;28;20441;-80
2023/08/05 07:53:41;;;;;;;1.30;1.13;;;15.60;99.90;;;;;;5085326;28;20494;-78
2023/08/05 07:56:11;;;;;;;0.90;0.90;;;15.60;99.90;;;;;;5085347;28;20446;-81
2023/08/05 07:58:42;;;;;;;1.30;1.20;;;15.60;99.90;;;;;;5084276;28;21269;-80
2023/08/05 08:01:11;;;;;;;1.87;1.77;;;15.60;99.90;;;;;;5083894;28;20560;-80
2023/08/05 08:03:40;;;;;;;0.90;0.90;;;15.60;99.90;;;;;;5083390;28;20453;-78
2023/08/05 08:06:07;;;;;;;1.73;1.53;;;15.60;99.90;;;;;;5085243;28;20444;-79
2023/08/05 08:08:34;;;;;;;1.53;1.27;;;15.60;99.90;;;;;;5084797;28;20467;-79
2023/08/05 08:11:01;;;;;;;2.70;1.40;;;15.50;99.90;;;;;;5085575;28;20483;-79
2023/08/05 08:13:28;;;;;;;1.87;0.90;;;15.50;99.90;;;;;;5089050;28;20459;-79
2023/08/05 08:15:55;;;;;;;3.33;1.50;;;15.50;99.90;;;;;;5088026;28;20464;-81
2023/08/05 08:18:22;;;;;;;1.73;1.63;;;15.50;99.90;;;;;;5087281;28;20481;-80
2023/08/05 08:20:53;;;;;;;2.10;1.80;;;15.50;99.90;;;;;;5086389;28;21143;-81
2023/08/05 08:23:20;;;;;;;1.40;1.30;;;15.50;99.90;;;;;;5086294;28;20510;-79
2023/08/05 08:25:47;;;;;;;1.53;1.43;;;15.50;99.90;;;;;;5087008;28;20458;-79
2023/08/05 08:28:14;;;;;;;1.90;1.00;;;15.50;99.90;;;;;;5084663;28;20548;-80
2023/08/05 08:30:52;;;;;;;2.03;1.77;;;15.50;99.90;;;;;;5083495;28;20515;-78
2023/08/05 08:33:19;;;;;;;1.47;1.37;;;15.50;99.90;;;;;;5085729;28;20560;-80
2023/08/05 08:35:45;;;;;;;1.70;1.60;;;15.50;99.90;;;;;;5087013;28;20435;-78
2023/08/05 08:38:14;;;;;;;1.90;1.67;;;15.50;99.90;;;;;;5084929;28;20455;-78
2023/08/05 08:40:47;;;;;;;1.47;1.37;;;15.50;99.90;;;;;;5082971;28;20585;-79
2023/08/05 08:43:17;;;;;;;1.47;1.37;;;15.50;99.90;;;;;;5085116;28;20515;-78
2023/08/05 08:45:47;;;;;;;1.63;1.53;;;15.50;99.90;;;;;;5081601;28;20846;-80
2023/08/05 08:48:15;;;;;;;1.90;1.40;;;15.60;99.90;;;;;;5088563;28;20528;-79
2023/08/05 08:50:43;;;;;;;2.67;2.47;;;15.60;99.90;;;;;;5084094;28;20572;-80
2023/08/05 08:53:13;;;;;;;2.07;1.90;;;15.60;99.90;;;;;;5081427;28;20521;-79
2023/08/05 08:55:42;;;;;;;2.50;2.27;;;15.60;99.90;;;;;;5085847;28;20455;-80
2023/08/05 08:58:09;;;;;;;2.10;1.90;;;15.60;99.90;;;;;;5078954;28;21119;-80
2023/08/05 09:00:37;;;;;;;1.67;1.57;;;15.70;99.90;;;;;;5084703;28;20985;-81
2023/08/05 09:03:06;;;;;;;2.43;2.23;;;15.80;99.90;;;;;;5084980;28;21234;-78
2023/08/05 09:05:37;;;;;;;3.80;2.00;;;15.80;99.90;;;;;;5083198;28;20514;-80
2023/08/05 09:08:05;;;;;;;1.87;1.33;;;15.90;99.90;;;;;;5084809;28;20493;-79
2023/08/05 09:10:32;;;;;;;2.40;2.30;;;16.00;99.90;;;;;;5082354;28;20480;-79
2023/08/05 09:13:00;;;;;;;2.17;2.07;;;16.00;99.90;;;;;;5080454;28;21548;-80
2023/08/05 09:15:33;;;;;;;1.80;1.70;;;16.10;99.90;;;;;;5081288;28;21235;-79
2023/08/05 09:18:00;;;;;;;1.73;1.63;;;16.10;99.90;;;;;;5084556;28;20452;-78
2023/08/05 09:20:27;;;;;;;2.47;2.27;;;16.20;99.90;;;;;;5082272;28;20532;-82
2023/08/05 09:22:55;;;;;;;3.33;1.50;;;16.20;99.90;;;;;;5084716;28;20613;-80
2023/08/05 09:25:23;;;;;;;1.67;1.57;;;16.30;99.90;;;;;;5082025;28;20469;-80
2023/08/05 09:27:52;;;;;;;1.40;1.30;;;16.50;99.90;;;;;;5082501;28;20502;-80
2023/08/05 09:30:21;;;;;;;2.87;1.67;;;16.70;99.90;;;;;;5083899;28;20990;-79
2023/08/05 09:32:49;;;;;;;4.93;1.73;;;16.70;99.90;;;;;;5084740;28;20451;-81
2023/08/05 09:35:17;;;;;;;1.60;1.37;;;16.70;99.90;;;;;;5077089;28;20977;-80
2023/08/05 09:37:48;;;;;;;1.40;1.30;;;16.80;99.90;;;;;;5086288;28;20474;-79
2023/08/05 09:40:17;;;;;;;1.40;1.30;;;16.80;99.90;;;;;;5085510;28;20860;-78
2023/08/05 09:42:47;;;;;;;1.50;1.40;;;16.80;99.90;;;;;;5085951;28;21099;-78
2023/08/05 09:45:15;;;;;;;1.77;1.67;;;16.70;99.90;;;;;;5086329;28;20474;-80
2023/08/05 09:47:47;;;;;;;1.83;1.53;;;16.60;99.90;;;;;;5083157;28;20890;-79
2023/08/05 09:50:14;;;;;;;1.70;1.60;;;16.60;99.90;;;;;;5085148;28;20947;-79
2023/08/05 09:52:43;;;;;;;3.63;2.60;;;16.60;99.90;;;;;;5084694;28;20468;-80
2023/08/05 09:55:13;;;;;;;2.20;2.10;;;16.60;99.90;;;;;;5080650;28;20540;-80
2023/08/05 09:57:41;;;;;;;8.70;1.73;;;16.60;99.90;;;;;;5086296;28;20516;-81
2023/08/05 10:00:11;;;;;;;2.43;2.23;;;16.60;99.90;;;;;;5078659;28;20477;-79
2023/08/05 10:02:40;;;;;;;2.20;2.10;;;16.70;99.90;;;;;;5083949;28;20540;-79
2023/08/05 10:05:10;;;;;;;2.43;2.30;;;16.70;99.90;;;;;;5083043;28;20980;-78
2023/08/05 10:07:39;;;;;;;3.57;2.43;;;16.70;99.90;;;;;;5083075;28;20489;-80
2023/08/05 10:10:09;;;;;;;4.03;3.47;;;16.70;99.90;;;;;;5079677;28;20949;-82
2023/08/05 10:12:41;;;;;;;2.13;2.03;;;16.60;99.90;;;;;;5080097;28;20478;-79
2023/08/05 10:15:11;;;;;;;2.50;2.13;;;16.60;99.90;;;;;;5080567;28;20479;-79
2023/08/05 10:17:40;;;;;;;1.90;1.80;;;16.60;99.90;;;;;;5081463;28;20464;-79
2023/08/05 10:20:13;;;;;;;2.63;2.43;;;16.60;99.90;;;;;;5078851;28;20549;-79
2023/08/05 10:22:40;;;;;;;2.70;2.50;;;16.60;99.90;;;;;;5076367;28;20582;-81
2023/08/05 10:25:08;;;;;;;2.57;2.37;;;16.60;99.90;;;;;;5082283;28;20458;-79
2023/08/05 10:27:40;;;;;;;2.27;2.17;;;16.60;99.90;;;;;;5082485;28;20466;-79
2023/08/05 10:30:12;;;;;;;2.37;2.17;;;16.60;99.90;;;;;;5084257;28;20444;-81
2023/08/05 10:32:52;;;;;;;1.80;1.70;;;16.70;99.90;;;;;;5079036;28;21455;-78
2023/08/05 10:35:29;;;;;;;1.57;1.47;;;16.80;99.90;;;;;;5082372;28;20508;-77
2023/08/05 10:38:09;;;;;;;1.73;1.40;;;16.80;99.90;;;;;;5079087;28;20477;-78
2023/08/05 10:40:41;;;;;;;2.70;2.50;;;16.70;99.90;;;;;;5079456;28;20522;-82
2023/08/05 10:43:09;;;;;;;1.80;1.70;;;16.60;99.90;;;;;;5085130;28;20972;-77
2023/08/05 10:45:40;;;;;;;2.97;2.77;;;16.60;99.90;;;;;;5075610;28;20460;-79
2023/08/05 10:48:13;;;;;;;2.40;2.20;;;16.60;99.90;;;;;;5080547;28;20448;-78
2023/08/05 10:50:43;;;;;;;3.10;2.63;;;16.50;99.90;;;;;;5081251;28;20442;-82
2023/08/05 10:53:12;;;;;;;2.47;2.30;;;16.50;99.90;;;;;;5082417;28;20485;-80
2023/08/05 10:55:47;;;;;;;2.40;2.30;;;16.60;99.90;;;;;;5085857;28;21070;-78
2023/08/05 10:58:14;;;;;;;2.77;2.57;;;16.60;99.90;;;;;;5087080;28;20458;-75
2023/08/05 11:00:42;;;;;;;2.70;2.50;;;16.60;99.90;;;;;;5083000;28;20555;-77
2023/08/05 11:03:32;;;;;;;3.53;2.60;;;16.60;99.90;;;;;;5082145;28;20573;-79
2023/08/05 11:06:05;;;;;;;4.53;2.00;;;16.60;99.90;;;;;;5084171;28;20454;-77
2023/08/05 11:08:33;;;;;;;3.27;3.07;;;16.50;99.90;;;;;;5081352;28;20465;-77
2023/08/05 11:11:04;;;;;;;2.90;2.67;;;16.50;99.90;;;;;;5080354;28;20505;-79
2023/08/05 11:13:35;;;;;;;2.50;2.40;;;16.50;99.90;;;;;;5080711;28;20476;-80
2023/08/05 11:16:08;;;;;;;2.93;2.60;;;16.50;99.90;;;;;;5083979;28;20551;-79
2023/08/05 11:18:35;;;;;;;3.47;3.17;;;16.50;99.90;;;;;;5080092;28;20491;-81
2023/08/05 11:21:05;;;;;;;3.63;3.40;;;16.50;99.90;;;;;;5082195;28;20493;-79
2023/08/05 11:23:33;;;;;;;2.30;2.10;;;16.50;99.90;;;;;;5082088;28;20522;-78
2023/08/05 11:26:01;;;;;;;2.23;2.13;;;16.40;99.90;;;;;;5078673;28;20493;-79
2023/08/05 11:28:29;;;;;;;3.17;2.90;;;16.40;99.90;;;;;;5081466;28;20549;-77
2023/08/05 11:30:56;;;;;;;2.30;2.20;;;16.40;99.90;;;;;;5082996;28;20806;-82
2023/08/05 11:33:23;;;;;;;2.67;2.47;;;16.40;99.90;;;;;;5082711;28;20949;-81
2023/08/05 11:35:53;;;;;;;3.30;3.10;;;16.30;99.90;;;;;;5078188;28;20472;-78
2023/08/05 11:38:23;;;;;;;4.13;3.83;;;16.30;99.90;;;;;;5081195;28;20524;-79
2023/08/05 11:40:52;;;;;;;4.27;4.07;;;16.30;99.90;;;;;;5078151;28;20501;-81
2023/08/05 11:43:21;;;;;;;3.90;3.53;;;16.40;99.90;;;;;;5081052;28;20573;-79
2023/08/05 11:45:48;;;;;;;4.27;3.60;;;16.30;99.90;;;;;;5078269;28;21134;-79
2023/08/05 11:48:20;;;;;;;3.63;3.33;;;16.20;99.90;;;;;;5088611;28;20448;-80
2023/08/05 11:50:47;;;;;;;3.70;3.40;;;16.30;99.90;;;;;;5086953;28;20566;-79
2023/08/05 11:53:14;;;;;;;7.60;5.07;;;16.30;99.90;;;;;;5088911;28;20566;-78
2023/08/05 11:55:43;;;;;;;4.27;3.87;;;16.40;99.90;;;;;;5091061;28;20439;-80
2023/08/05 11:58:10;;;;;;;4.27;3.97;;;16.50;99.90;;;;;;5085713;28;20520;-80
2023/08/05 12:00:37;;;;;;;4.60;4.30;;;16.50;99.90;;;;;;5086773;28;20569;-78
2023/08/05 12:03:05;;;;;;;4.50;4.20;;;16.60;99.90;;;;;;5085530;28;20576;-79
2023/08/05 12:05:32;;;;;;;4.70;4.37;;;16.60;99.90;;;;;;5077822;28;22318;-79
2023/08/05 12:07:59;;;;;;;4.20;3.90;;;16.60;99.90;;;;;;5081019;28;20504;-78
2023/08/05 12:10:27;;;;;;;5.20;4.87;;;16.60;99.90;;;;;;5082916;28;21019;-81
2023/08/05 12:12:56;;;;;;;3.90;3.70;;;16.50;99.90;;;;;;5086074;28;20529;-79
2023/08/05 12:15:26;;;;;;;4.77;4.47;;;16.50;99.90;;;;;;5077208;28;20459;-79
2023/08/05 12:17:54;;;;;;;4.13;3.73;;;16.50;99.90;;;;;;5079558;28;20466;-79
2023/08/05 12:20:23;;;;;;;6.80;3.60;;;16.50;99.90;;;;;;5082513;28;20472;-78
2023/08/05 12:22:51;;;;;;;5.37;4.97;;;16.60;99.90;;;;;;5084503;28;20506;-81
2023/08/05 12:25:18;;;;;;;4.50;4.10;;;16.50;99.90;;;;;;5078209;28;20623;-80
2023/08/05 12:27:45;;;;;;;5.03;4.63;;;16.60;99.90;;;;;;5087442;28;20455;-78
2023/08/05 12:30:15;;;;;;;4.73;4.47;;;16.60;99.90;;;;;;5080506;28;20465;-79
2023/08/05 12:32:42;;;;;;;5.20;4.70;;;16.60;99.90;;;;;;5087662;28;20949;-79
2023/08/05 12:35:10;;;;;;;5.73;4.83;;;16.60;99.90;;;;;;5080925;28;20470;-79
2023/08/05 12:37:39;;;;;;;4.67;4.23;;;16.60;99.90;;;;;;5085228;28;20969;-79
2023/08/05 12:40:08;;;;;;;4.97;4.57;;;16.60;99.90;;;;;;5086176;28;21087;-78
2023/08/05 12:42:35;;;;;;;6.93;6.43;;;16.70;99.90;;;;;;5082109;28;20547;-78
2023/08/05 12:45:04;;;;;;;5.90;5.40;;;16.80;99.90;;;;;;5084103;28;21012;-79
2023/08/05 12:47:33;;;;;;;7.57;6.50;;;16.90;99.90;;;;;;5080358;28;20928;-79
2023/08/05 12:50:00;;;;;;;6.70;6.10;;;17.00;99.90;;;;;;5081258;28;20478;-81
2023/08/05 12:52:27;;;;;;;6.17;5.67;;;17.10;99.90;;;;;;5076560;28;20473;-78